Airport View

Enter AWOS ICAO identifier for current METAR.

ex. KFNL

K46D 300455Z AUTO 00000KT 9SM BKN008 OVC011 00/00 A3008 RMK AO2

30 Oct 2020 05:07

Frequency: 118.575

Phone: 701-652-1875

Other Area AWOS: KJMS - K5H4 - KDVL - KS32

KJMS 300322Z 3003/3024 17010KT P6SM SCT015 OVC025 FM300330 15010KT 5SM -SN BKN007 OVC010 FM300500 16007KT 5SM BR OVC005 FM301200 20006KT 3SM BR OVC004 FM301800 18011G19KT P6SM OVC009 FM302100 17014G22KT P6SM BKN012